Terminal Aerodrome Forecast
Issued by NWS

Home | Current Version | Previous Version | Text Only | Print | Product List | Glossary On
Versions: 1 2 3 4 5 6 7 8 9 10 11 12 13 14 15 16 17 18 19 20 21 22 23 24 25
000
FTUS43 KDLH 112300
TAFHYR
TAF
KHYR 112320Z 1200/1224 20007KT P6SM BKN025 OVC050
     FM120200 20008KT P6SM VCTS SCT025 BKN035CB
     FM120500 21003KT 4SM BR VCSH SCT060
     FM120900 VRB02KT 2SM BR FEW010
     FM121400 34006KT P6SM SCT040=

USA.gov is the U.S. government's official web portal to all federal, state and local government web resources and services.